Time;durP1;ratioP1;P1;durP2;ratioP2;P2;SDS_P1;SDS_P2;PMS_P1;PMS_P2;Temp;Humidity;BMP_temperature;BMP_pressure;BME280_temperature;BME280_humidity;BME280_pressure;Samples;Min_cycle;Max_cycle;Signal;HPM_P1;HPM_P2
2022/06/29 00:00:26;;;;;;;3.47;3.17;;;;;;;22.10;65.05;98023.78;4993409;28;20045;-87
2022/06/29 00:02:53;;;;;;;5.82;4.93;;;;;;;22.02;64.84;98017.13;4993671;28;20038;-85
2022/06/29 00:05:23;;;;;;;4.40;4.00;;;;;;;22.06;64.97;98020.00;4993811;28;20114;-85
2022/06/29 00:07:50;;;;;;;4.75;4.35;;;;;;;22.04;65.20;98017.63;4994383;28;20110;-86
2022/06/29 00:10:17;;;;;;;5.00;4.50;;;;;;;22.02;65.42;98027.00;4989101;28;20106;-86
2022/06/29 00:12:53;;;;;;;5.50;5.00;;;;;;;21.91;65.67;98020.91;4993482;28;20035;-86
2022/06/29 00:15:20;;;;;;;5.15;4.75;;;;;;;21.87;65.75;98011.84;4993622;28;20478;-86
2022/06/29 00:17:46;;;;;;;4.80;4.40;;;;;;;21.91;66.25;98015.56;4992368;28;20064;-86
2022/06/29 00:20:12;;;;;;;6.18;4.95;;;;;;;21.76;66.15;97996.94;4993601;28;20074;-87
2022/06/29 00:22:43;;;;;;;5.80;5.07;;;;;;;21.66;67.31;97989.78;4993269;28;20490;-86
2022/06/29 00:25:11;;;;;;;4.00;3.70;;;;;;;21.70;66.49;97987.34;4993043;28;20038;-86
2022/06/29 00:27:38;;;;;;;2.97;2.63;;;;;;;21.92;67.11;98017.16;4993206;28;20041;-88
2022/06/29 00:30:05;;;;;;;3.42;3.13;;;;;;;21.87;66.91;97993.94;4993537;28;20490;-87
2022/06/29 00:32:31;;;;;;;3.67;3.15;;;;;;;21.93;67.36;97997.38;4992788;28;20040;-86
2022/06/29 00:34:59;;;;;;;5.68;3.78;;;;;;;21.85;66.43;97992.63;4993393;28;20401;-87
2022/06/29 00:37:25;;;;;;;5.32;3.88;;;;;;;21.80;66.33;97984.66;4992487;28;20042;-87
2022/06/29 00:39:51;;;;;;;4.07;3.67;;;;;;;21.87;66.48;98003.81;4974463;28;20035;-87
2022/06/29 00:42:16;;;;;;;3.20;2.90;;;;;;;21.91;66.50;97991.53;4992893;28;20478;-86
2022/06/29 00:44:42;;;;;;;3.08;2.80;;;;;;;22.00;66.08;97987.19;4993291;28;20030;-86
2022/06/29 00:47:07;;;;;;;3.53;2.75;;;;;;;22.08;66.80;98004.53;4982819;28;20541;-86
2022/06/29 00:49:34;;;;;;;3.42;3.13;;;;;;;22.13;65.83;98012.53;4989852;28;20522;-86
2022/06/29 00:52:08;;;;;;;2.95;2.75;;;;;;;22.20;66.30;98012.25;4992603;28;20027;-85
2022/06/29 00:54:59;;;;;;;3.72;3.42;;;;;;;22.13;65.68;98010.69;4989688;28;20042;-86
2022/06/29 00:57:29;;;;;;;4.07;3.78;;;;;;;22.08;65.94;98005.31;4992414;28;20034;-84
2022/06/29 00:59:59;;;;;;;4.60;4.20;;;;;;;22.07;65.67;98003.72;4992146;28;20069;-86
2022/06/29 01:02:32;;;;;;;4.78;4.25;;;;;;;22.12;65.38;98003.72;4991015;28;20046;-85
2022/06/29 01:04:58;;;;;;;4.00;3.70;;;;;;;22.10;65.54;98003.19;4991225;28;20442;-86
2022/06/29 01:07:28;;;;;;;4.28;3.88;;;;;;;22.08;65.55;98005.31;4992846;28;20108;-87
2022/06/29 01:09:54;;;;;;;4.53;4.13;;;;;;;22.02;66.07;97985.06;4989306;28;20045;-86
2022/06/29 01:12:27;;;;;;;3.78;3.47;;;;;;;22.02;65.58;97984.28;4991083;28;20042;-88
2022/06/29 01:14:54;;;;;;;4.60;4.20;;;;;;;22.10;65.81;97997.06;4992889;28;20041;-84
2022/06/29 01:17:22;;;;;;;4.70;4.18;;;;;;;22.05;65.62;97989.84;4990634;28;20026;-83
2022/06/29 01:19:48;;;;;;;4.55;4.15;;;;;;;21.96;66.14;97983.50;4991096;28;20037;-83
2022/06/29 01:22:20;;;;;;;4.80;4.40;;;;;;;21.93;66.13;97986.72;4994588;28;20057;-81
2022/06/29 01:24:48;;;;;;;5.05;4.60;;;;;;;21.97;66.03;98006.47;4994760;28;20544;-85
2022/06/29 01:27:17;;;;;;;5.03;4.53;;;;;;;21.84;66.57;97989.16;4991736;28;20627;-85
2022/06/29 01:29:43;;;;;;;5.75;5.25;;;;;;;21.89;66.07;98001.66;4991261;28;20367;-83
2022/06/29 01:32:09;;;;;;;5.68;5.10;;;;;;;21.83;66.29;97998.25;4996167;28;20441;-87
2022/06/29 01:34:36;;;;;;;5.80;5.30;;;;;;;21.87;66.31;98011.84;4991765;28;20061;-87
2022/06/29 01:37:03;;;;;;;4.30;3.92;;;;;;;21.83;66.28;97992.09;4991924;28;20041;-84
2022/06/29 01:39:29;;;;;;;5.00;4.60;;;;;;;21.85;66.40;97989.97;4992021;28;20042;-88
2022/06/29 01:41:57;;;;;;;6.80;6.20;;;;;;;21.72;66.37;97971.88;4990412;28;20031;-84
2022/06/29 01:44:23;;;;;;;4.60;4.20;;;;;;;21.78;66.70;97974.25;4992378;28;20078;-85
2022/06/29 01:46:48;;;;;;;5.43;4.60;;;;;;;21.69;66.42;97964.41;5007180;28;20062;-83
2022/06/29 01:49:14;;;;;;;4.60;4.20;;;;;;;21.85;66.56;97981.97;4991502;28;20053;-85
2022/06/29 01:51:40;;;;;;;3.80;3.50;;;;;;;21.83;66.24;97979.56;4991764;28;20038;-88
2022/06/29 01:54:06;;;;;;;5.68;5.18;;;;;;;21.73;66.56;97973.47;4991404;28;20034;-85
2022/06/29 01:56:31;;;;;;;5.72;5.22;;;;;;;21.70;66.39;97976.69;4990323;28;20030;-87
2022/06/29 01:58:57;;;;;;;5.22;4.78;;;;;;;21.65;66.69;97980.16;5003571;28;20041;-87
2022/06/29 02:01:23;;;;;;;5.20;4.70;;;;;;;21.64;67.24;97962.56;4972932;28;20065;-87
2022/06/29 02:03:49;;;;;;;4.80;4.40;;;;;;;21.64;67.08;97963.34;4972529;28;20038;-88
2022/06/29 02:06:14;;;;;;;3.80;3.50;;;;;;;21.63;67.85;97953.75;4990276;28;20230;-88
2022/06/29 02:08:40;;;;;;;3.90;3.55;;;;;;;21.68;67.69;97963.63;4990557;28;20034;-88
2022/06/29 02:11:06;;;;;;;4.60;4.18;;;;;;;21.72;67.64;97985.22;4987157;28;20113;-85
2022/06/29 02:13:31;;;;;;;5.28;4.78;;;;;;;21.67;67.50;97985.25;4991488;28;20038;-87
2022/06/29 02:15:57;;;;;;;3.63;3.33;;;;;;;21.61;67.71;97974.59;4990232;28;20121;-88
2022/06/29 02:18:23;;;;;;;4.93;4.53;;;;;;;21.66;67.27;97991.66;4990328;28;20401;-89
2022/06/29 02:20:49;;;;;;;4.80;4.40;;;;;;;21.55;67.89;97991.69;4989662;28;20041;-88
2022/06/29 02:23:15;;;;;;;6.40;4.30;;;;;;;21.49;68.20;97968.78;4990823;28;20030;-87
2022/06/29 02:25:40;;;;;;;4.80;4.40;;;;;;;21.33;68.01;97961.91;4991427;28;20042;-88
2022/06/29 02:28:06;;;;;;;3.40;3.10;;;;;;;21.44;68.53;97960.00;4973621;28;20052;-88
2022/06/29 02:36:02;;;;;;;3.67;3.38;;;;;;;21.45;68.24;97969.59;4990923;28;20129;-88
2022/06/29 02:38:27;;;;;;;4.75;4.30;;;;;;;21.34;68.65;97969.63;4990988;28;20076;-87
2022/06/29 02:40:53;;;;;;;4.30;3.90;;;;;;;21.23;68.29;97961.88;4990175;28;20058;-87
2022/06/29 02:43:18;;;;;;;3.60;3.30;;;;;;;21.29;68.30;97969.66;5006177;28;20478;-87
2022/06/29 02:45:44;;;;;;;3.95;3.55;;;;;;;21.33;69.43;97976.03;4991068;28;20038;-87
2022/06/29 02:48:09;;;;;;;4.50;4.10;;;;;;;21.23;69.35;97956.56;4990562;28;20501;-85
2022/06/29 02:50:35;;;;;;;5.75;5.25;;;;;;;21.15;69.33;97954.44;4989575;28;20057;-88
2022/06/29 02:53:01;;;;;;;4.60;4.20;;;;;;;21.13;69.73;97949.41;4989994;28;20037;-88
2022/06/29 02:55:26;;;;;;;4.70;4.30;;;;;;;21.06;69.98;97952.34;4991355;28;20026;-88
2022/06/29 02:57:52;;;;;;;4.50;4.10;;;;;;;21.06;69.29;97955.03;4970654;28;20034;-87
2022/06/29 03:00:18;;;;;;;4.07;3.67;;;;;;;21.10;69.85;97952.59;4970522;28;20089;-87
2022/06/29 03:02:43;;;;;;;5.10;4.70;;;;;;;21.09;69.78;97962.47;4979127;28;20548;-87
2022/06/29 03:05:09;;;;;;;3.92;3.63;;;;;;;21.06;70.19;97946.22;4989788;28;20040;-87
2022/06/29 03:07:35;;;;;;;4.03;3.72;;;;;;;21.19;70.08;97956.31;4989205;28;20089;-87
2022/06/29 03:10:01;;;;;;;4.03;3.72;;;;;;;21.17;69.70;97938.97;4987185;28;20073;-87
2022/06/29 03:12:45;;;;;;;4.28;3.88;;;;;;;21.08;69.78;97928.88;4990662;28;20086;-87
2022/06/29 03:15:29;;;;;;;3.28;2.97;;;;;;;21.16;69.81;97932.84;4990943;28;20049;-87
2022/06/29 03:18:02;;;;;;;4.32;3.90;;;;;;;21.13;69.42;97930.72;4989493;28;20036;-87
2022/06/29 03:20:28;;;;;;;3.78;3.45;;;;;;;21.14;70.28;97935.00;4991045;28;20042;-87
2022/06/29 03:22:53;;;;;;;4.28;3.88;;;;;;;21.11;69.67;97922.19;4989854;28;20042;-87
2022/06/29 03:25:19;;;;;;;2.90;2.70;;;;;;;21.16;69.50;97938.19;4990728;28;20069;-87
2022/06/29 03:27:45;;;;;;;3.28;2.97;;;;;;;21.24;70.36;97939.50;4990154;28;20062;-87
2022/06/29 03:30:11;;;;;;;3.30;3.00;;;;;;;21.25;70.00;97935.75;4973106;28;20034;-87
2022/06/29 03:32:38;;;;;;;3.22;3.00;;;;;;;21.20;69.99;97925.09;4991143;28;20034;-87
2022/06/29 03:35:05;;;;;;;3.30;3.00;;;;;;;21.26;69.92;97934.69;4992880;28;20034;-87
2022/06/29 03:37:30;;;;;;;3.25;2.95;;;;;;;21.22;69.97;97941.63;4994383;28;20037;-86
2022/06/29 03:39:56;;;;;;;2.90;2.70;;;;;;;21.29;70.08;97934.16;4994730;28;20042;-87
2022/06/29 03:42:22;;;;;;;2.75;2.55;;;;;;;21.35;69.45;97938.41;4993967;28;20462;-87
2022/06/29 03:44:48;;;;;;;3.45;3.15;;;;;;;21.29;70.03;97936.81;5021200;28;20026;-86
2022/06/29 03:47:14;;;;;;;3.72;3.42;;;;;;;21.27;69.67;97934.41;5025625;28;20489;-84
2022/06/29 03:49:39;;;;;;;6.18;5.65;;;;;;;21.16;69.82;97945.38;5012961;28;20438;-87
2022/06/29 03:52:05;;;;;;;5.88;5.28;;;;;;;21.05;70.50;97942.75;4992784;28;20033;-86
2022/06/29 03:54:32;;;;;;;4.63;4.22;;;;;;;21.03;69.98;97944.88;4992889;28;20038;-86
2022/06/29 03:56:58;;;;;;;3.80;3.50;;;;;;;21.12;70.68;97955.81;4994324;28;20045;-86
2022/06/29 03:59:23;;;;;;;5.47;4.97;;;;;;;21.01;69.52;97938.22;5009638;28;20034;-86
2022/06/29 04:01:50;;;;;;;4.82;4.43;;;;;;;21.14;69.96;97947.53;4993448;28;20129;-86
2022/06/29 04:04:16;;;;;;;4.70;4.30;;;;;;;21.08;69.31;97939.53;4992708;28;20059;-87
2022/06/29 04:06:41;;;;;;;3.95;3.60;;;;;;;21.19;69.89;97953.66;4992391;28;20053;-87
2022/06/29 04:09:07;;;;;;;3.40;3.10;;;;;;;21.27;70.76;97949.63;4990238;28;20034;-87
2022/06/29 04:11:49;;;;;;;4.43;4.03;;;;;;;21.16;69.75;97938.19;5000937;28;20088;-86
2022/06/29 04:14:19;;;;;;;3.67;3.38;;;;;;;21.22;70.65;97933.63;5008555;28;20042;-87
2022/06/29 04:16:46;;;;;;;3.30;3.00;;;;;;;21.35;70.16;97949.06;4991488;28;20030;-87
2022/06/29 04:19:11;;;;;;;3.88;3.47;;;;;;;21.21;70.55;97938.16;4993771;28;20049;-88
2022/06/29 04:21:38;;;;;;;2.95;2.75;;;;;;;21.29;70.77;97940.31;5008468;28;20509;-87
2022/06/29 04:24:04;;;;;;;4.00;2.92;;;;;;;21.36;69.92;97940.81;4992352;28;20496;-87
2022/06/29 04:26:30;;;;;;;3.55;3.25;;;;;;;21.48;69.92;97948.50;4993463;28;20041;-87
2022/06/29 04:28:55;;;;;;;2.70;2.50;;;;;;;21.63;70.51;97958.31;4993370;28;20038;-88
2022/06/29 04:31:21;;;;;;;3.25;2.95;;;;;;;21.64;68.77;97966.03;4984478;28;20039;-86
2022/06/29 04:33:46;;;;;;;3.45;3.15;;;;;;;21.55;69.21;97959.69;4975219;28;20034;-85
2022/06/29 04:36:12;;;;;;;3.40;3.10;;;;;;;21.71;69.61;97962.25;5008515;28;20026;-87
2022/06/29 04:38:38;;;;;;;3.78;3.47;;;;;;;21.71;69.43;97956.91;4991558;28;20065;-86
2022/06/29 04:41:04;;;;;;;4.03;3.70;;;;;;;21.74;69.57;97954.50;5008828;28;20042;-88
2022/06/29 04:43:29;;;;;;;3.53;3.22;;;;;;;21.84;69.55;97953.66;4992726;28;20122;-87
2022/06/29 04:48:42;;;;;;;5.43;4.20;;;;;;;21.95;67.13;97952.53;4992269;28;20045;-87
2022/06/29 04:51:08;;;;;;;3.40;3.08;;;;;;;21.98;69.50;97946.63;4991800;28;20073;-88
2022/06/29 04:53:34;;;;;;;4.20;3.80;;;;;;;21.97;69.17;97942.38;4992816;28;20074;-88
2022/06/29 04:56:00;;;;;;;3.28;2.97;;;;;;;21.99;69.44;97932.19;4991652;28;20113;-87
2022/06/29 04:58:26;;;;;;;4.10;3.75;;;;;;;22.05;68.84;97939.09;4992730;28;20109;-88
2022/06/29 05:00:52;;;;;;;4.30;3.90;;;;;;;21.99;68.13;97947.44;4975552;28;20625;-89
2022/06/29 05:03:17;;;;;;;4.13;3.72;;;;;;;22.12;70.31;97942.28;4959776;28;20026;-85
2022/06/29 05:05:43;;;;;;;4.13;3.72;;;;;;;22.02;68.23;97930.88;4992976;28;20037;-83
2022/06/29 05:08:09;;;;;;;3.70;3.40;;;;;;;22.18;69.22;97938.50;4991523;28;20041;-89
2022/06/29 05:10:34;;;;;;;3.47;3.17;;;;;;;22.23;68.95;97939.53;4988623;28;20034;-89
2022/06/29 05:13:00;;;;;;;3.30;3.00;;;;;;;22.18;69.41;97925.16;4992584;28;20053;-88
2022/06/29 05:15:26;;;;;;;4.18;3.78;;;;;;;22.27;68.13;97946.72;4992019;28;20563;-88
2022/06/29 05:17:52;;;;;;;3.83;3.53;;;;;;;22.30;69.24;97942.69;4993095;28;20126;-88
2022/06/29 05:20:20;;;;;;;5.20;4.38;;;;;;;22.12;68.12;97939.63;4992802;28;20390;-86
2022/06/29 05:22:46;;;;;;;4.03;3.72;;;;;;;22.19;67.72;97936.66;4979924;28;20038;-87
2022/06/29 05:25:12;;;;;;;3.95;3.65;;;;;;;22.29;66.14;97941.09;4990741;28;20117;-83
2022/06/29 05:27:38;;;;;;;3.53;3.22;;;;;;;22.23;68.97;97918.97;4992486;28;20104;-88
2022/06/29 05:30:04;;;;;;;4.35;3.45;;;;;;;22.37;66.89;97945.84;4992741;28;20121;-86
2022/06/29 05:32:30;;;;;;;3.25;3.03;;;;;;;22.41;67.27;97946.88;4971653;28;20053;-86
2022/06/29 05:34:55;;;;;;;4.00;3.60;;;;;;;22.33;67.34;97926.13;4991198;28;20030;-85
2022/06/29 05:37:21;;;;;;;3.63;3.33;;;;;;;22.29;67.52;97946.44;5004017;28;20491;-85
2022/06/29 05:39:47;;;;;;;4.22;3.83;;;;;;;22.35;67.28;97961.34;4989689;28;20042;-84
2022/06/29 05:42:13;;;;;;;4.80;4.38;;;;;;;22.20;66.44;97962.28;4992064;28;20030;-84
2022/06/29 05:44:40;;;;;;;4.20;3.78;;;;;;;22.36;66.85;97960.28;4991930;28;20109;-88
2022/06/29 05:47:07;;;;;;;3.60;3.20;;;;;;;22.46;67.02;97962.88;4992481;28;20113;-88
2022/06/29 05:49:35;;;;;;;3.92;3.63;;;;;;;22.62;65.83;97976.94;4991934;28;20088;-88
2022/06/29 05:52:01;;;;;;;3.50;3.20;;;;;;;22.69;65.90;97982.75;4988214;28;20101;-85
2022/06/29 05:54:27;;;;;;;3.38;3.10;;;;;;;22.56;66.92;97946.78;4990673;28;20041;-86
2022/06/29 05:56:52;;;;;;;3.75;3.45;;;;;;;22.62;65.35;97969.69;4991539;28;20023;-85
2022/06/29 05:59:18;;;;;;;3.90;3.60;;;;;;;22.59;66.43;97967.56;4990948;28;20026;-85
2022/06/29 06:01:43;;;;;;;4.20;3.40;;;;;;;22.66;65.17;97948.53;4991394;28;20066;-86
2022/06/29 06:04:09;;;;;;;5.82;3.88;;;;;;;22.74;66.08;97952.50;4992213;28;20471;-84
2022/06/29 06:06:34;;;;;;;3.35;2.90;;;;;;;22.87;65.80;97941.16;4991637;28;20034;-86
2022/06/29 06:09:00;;;;;;;3.55;3.25;;;;;;;23.02;65.90;97966.94;4985236;28;20030;-86
2022/06/29 06:11:27;;;;;;;5.13;4.72;;;;;;;22.70;64.19;97942.34;4991626;28;20486;-84
2022/06/29 06:13:52;;;;;;;3.70;3.40;;;;;;;22.83;64.48;97954.25;4990840;28;20044;-83
2022/06/29 06:16:18;;;;;;;4.45;4.05;;;;;;;22.77;64.23;97951.91;4991266;28;20421;-84
2022/06/29 06:18:43;;;;;;;3.40;3.10;;;;;;;22.95;65.95;97959.25;5003938;28;20037;-87
2022/06/29 06:21:09;;;;;;;2.90;2.70;;;;;;;22.93;66.18;97956.06;4971406;28;98989;-86
2022/06/29 06:23:34;;;;;;;3.50;3.17;;;;;;;22.86;64.44;97942.22;4976334;28;365951;-85
2022/06/29 06:26:00;;;;;;;3.55;3.03;;;;;;;23.01;65.00;97962.69;4991101;28;20030;-85
2022/06/29 06:28:26;;;;;;;3.83;3.53;;;;;;;22.91;65.51;97947.53;4991209;28;20045;-87
2022/06/29 06:30:51;;;;;;;3.95;3.58;;;;;;;22.89;66.42;97952.38;4990713;28;20030;-86
2022/06/29 06:33:17;;;;;;;3.67;3.38;;;;;;;22.92;64.42;97970.53;4990126;28;20030;-83
2022/06/29 06:35:43;;;;;;;3.33;3.03;;;;;;;22.83;65.23;97950.78;4990549;28;20045;-87
2022/06/29 06:38:09;;;;;;;3.88;3.45;;;;;;;22.76;65.01;97964.50;4990112;28;20026;-86
2022/06/29 06:43:19;;;;;;;3.97;3.33;;;;;;;22.69;66.04;97969.38;4989045;28;20117;-86
2022/06/29 06:45:45;;;;;;;4.53;3.63;;;;;;;22.59;65.55;97962.22;4973652;28;20113;-85
2022/06/29 06:48:10;;;;;;;4.13;3.80;;;;;;;22.35;66.47;97950.69;5002149;28;20045;-83
2022/06/29 06:50:36;;;;;;;4.75;4.35;;;;;;;22.40;66.24;97975.47;4989467;28;20101;-86
2022/06/29 06:53:02;;;;;;;4.90;4.32;;;;;;;22.22;66.74;97962.00;4989863;28;20030;-85
2022/06/29 06:55:29;;;;;;;4.65;4.25;;;;;;;22.12;66.64;97973.53;4990681;28;20529;-88
2022/06/29 06:57:54;;;;;;;3.92;3.50;;;;;;;22.18;67.00;97972.44;4990985;28;20104;-82
2022/06/29 07:00:22;;;;;;;4.30;3.85;;;;;;;22.17;66.50;97979.66;4989904;28;20490;-85
2022/06/29 07:04:05;;;;;;;4.43;4.03;;;;;;;22.14;66.98;97977.53;5108184;27;20391;-86
2022/06/29 07:06:32;;;;;;;3.28;2.97;;;;;;;22.21;68.11;97965.75;5086937;28;20075;-86
2022/06/29 07:08:59;;;;;;;3.60;3.30;;;;;;;22.31;66.79;97954.97;5070958;28;20051;-88
2022/06/29 07:11:26;;;;;;;3.22;2.92;;;;;;;22.36;66.47;97947.72;5085012;28;20613;-84
2022/06/29 07:13:53;;;;;;;4.00;3.55;;;;;;;22.35;67.31;97948.00;5084394;28;20115;-85
2022/06/29 07:16:19;;;;;;;4.85;4.35;;;;;;;22.30;66.61;97953.38;5055014;28;156789;-83
2022/06/29 07:18:48;;;;;;;4.57;3.72;;;;;;;22.38;66.27;97958.16;5059704;28;20090;-83
2022/06/29 07:21:15;;;;;;;4.50;4.05;;;;;;;22.46;66.71;97957.53;5066726;28;20424;-83
2022/06/29 07:23:44;;;;;;;3.97;3.65;;;;;;;22.51;67.61;97948.69;5066912;28;20037;-85
2022/06/29 07:26:11;;;;;;;4.05;3.67;;;;;;;22.67;66.65;97947.44;5057781;28;20041;-84
2022/06/29 07:28:39;;;;;;;4.85;4.28;;;;;;;22.79;65.36;97947.06;5047411;28;20040;-82
2022/06/29 07:31:07;;;;;;;5.05;4.47;;;;;;;23.01;65.25;97942.06;5064192;28;20044;-82
2022/06/29 07:33:37;;;;;;;3.55;3.25;;;;;;;23.62;64.55;97951.28;5065648;28;20461;-84
2022/06/29 07:36:04;;;;;;;3.17;2.88;;;;;;;23.97;62.51;97947.34;5065903;28;20052;-84
2022/06/29 07:38:30;;;;;;;3.55;2.72;;;;;;;24.30;62.74;97943.63;5058826;28;20048;-85
2022/06/29 07:40:58;;;;;;;3.40;3.10;;;;;;;24.54;62.68;97935.50;5063122;28;20049;-84
2022/06/29 07:43:26;;;;;;;3.58;3.25;;;;;;;24.83;60.33;97932.56;5065329;28;20098;-84
2022/06/29 07:45:57;;;;;;;3.58;3.28;;;;;;;25.16;60.34;97918.31;5061113;28;20072;-83
2022/06/29 07:48:24;;;;;;;;;;;;;;;25.15;58.84;97922.88;5065777;28;20568;-83
2022/06/29 07:50:51;;;;;;;3.17;2.90;;;;;;;25.35;59.12;97930.50;5078811;28;19970;-85
2022/06/29 07:53:19;;;;;;;3.70;3.40;;;;;;;25.32;56.78;97901.59;5056972;28;20041;-84
2022/06/29 07:55:46;;;;;;;4.13;3.72;;;;;;;25.48;57.35;97909.31;5057607;28;20190;-84
2022/06/29 07:58:14;;;;;;;4.50;4.10;;;;;;;25.46;57.25;97906.94;5061122;28;20114;-84
2022/06/29 08:00:42;;;;;;;3.60;3.30;;;;;;;25.77;58.48;97906.31;5061071;28;20464;-82
2022/06/29 08:03:10;;;;;;;2.97;2.77;;;;;;;25.91;57.12;97900.88;5065375;28;20136;-82
2022/06/29 08:05:38;;;;;;;3.55;3.25;;;;;;;25.89;56.69;97899.28;5057240;28;20116;-83
2022/06/29 08:08:05;;;;;;;3.35;3.05;;;;;;;26.04;57.07;97898.16;5064666;28;20127;-82
2022/06/29 08:10:33;;;;;;;4.25;3.20;;;;;;;26.13;55.96;97903.59;5057860;28;20040;-84
2022/06/29 08:13:00;;;;;;;3.53;3.30;;;;;;;26.30;55.27;97892.97;5062145;28;20041;-83
2022/06/29 08:15:28;;;;;;;3.97;3.60;;;;;;;26.47;56.73;97902.25;5045453;28;20094;-83
2022/06/29 08:17:56;;;;;;;3.80;3.50;;;;;;;26.37;55.48;97887.94;5064994;28;20138;-85
2022/06/29 08:20:23;;;;;;;5.28;4.88;;;;;;;25.94;55.42;97889.53;5051790;28;20056;-84
2022/06/29 08:22:50;;;;;;;4.07;3.78;;;;;;;26.14;56.16;97883.66;5034212;28;20045;-84
2022/06/29 08:25:16;;;;;;;3.80;3.50;;;;;;;26.21;56.47;97888.63;5051626;28;20457;-85
2022/06/29 08:27:51;;;;;;;3.85;3.53;;;;;;;26.34;53.98;97893.94;5052575;28;20093;-85
2022/06/29 08:30:18;;;;;;;4.47;3.95;;;;;;;26.40;55.91;97881.97;5046284;28;20051;-83
2022/06/29 08:32:45;;;;;;;4.28;3.88;;;;;;;26.48;54.91;97899.25;5065028;28;20095;-82
2022/06/29 08:35:15;;;;;;;3.40;3.10;;;;;;;26.64;54.69;97896.97;5052383;28;20049;-83
2022/06/29 08:37:45;;;;;;;3.88;3.55;;;;;;;26.69;54.01;97902.22;5052953;28;20052;-84
2022/06/29 08:40:16;;;;;;;4.10;3.80;;;;;;;26.67;54.39;97890.97;5049338;28;20102;-81
2022/06/29 08:42:45;;;;;;;4.20;3.80;;;;;;;26.64;54.17;97886.22;5052375;28;20049;-81
2022/06/29 08:45:14;;;;;;;4.80;3.65;;;;;;;26.76;53.23;97901.78;5052309;28;20091;-83
2022/06/29 08:47:42;;;;;;;3.50;3.20;;;;;;;26.90;52.89;97894.41;5050975;28;20511;-83
2022/06/29 08:50:11;;;;;;;4.05;3.65;;;;;;;27.03;53.81;97898.09;5050940;28;20060;-83
2022/06/29 08:52:40;;;;;;;4.13;3.80;;;;;;;26.97;53.23;97902.03;5049991;28;20048;-81
2022/06/29 08:55:10;;;;;;;3.65;3.38;;;;;;;26.82;53.26;97898.66;5051120;28;20041;-82
2022/06/29 08:57:40;;;;;;;3.70;3.40;;;;;;;26.61;54.41;97905.66;5052029;28;20041;-83
2022/06/29 09:00:09;;;;;;;3.08;2.88;;;;;;;26.71;54.19;97897.31;5039633;28;20484;-82
2022/06/29 09:02:39;;;;;;;4.00;3.67;;;;;;;26.50;53.60;97898.94;5049822;28;20061;-83
2022/06/29 09:05:07;;;;;;;3.13;2.80;;;;;;;26.69;54.05;97904.94;5049709;28;20076;-82
2022/06/29 09:07:34;;;;;;;3.15;2.83;;;;;;;26.79;55.24;97910.00;5052016;28;20053;-83
2022/06/29 09:10:13;;;;;;;3.00;2.80;;;;;;;26.73;56.25;97905.88;5050292;28;20053;-83
2022/06/29 09:12:52;;;;;;;3.15;2.95;;;;;;;26.65;55.00;97899.34;5050419;28;20083;-82
2022/06/29 09:15:38;;;;;;;3.20;2.80;;;;;;;26.68;54.92;97908.69;5051984;28;20529;-82
2022/06/29 09:18:32;;;;;;;3.22;2.42;;;;;;;26.47;54.21;97902.25;5051841;28;20049;-86
2022/06/29 09:21:03;;;;;;;3.30;2.90;;;;;;;26.55;55.64;97904.19;5034722;28;20053;-86
2022/06/29 09:23:32;;;;;;;3.70;3.40;;;;;;;26.39;55.41;97893.03;5051874;28;20064;-87
2022/06/29 09:26:01;;;;;;;3.08;2.88;;;;;;;26.54;55.95;97889.16;5042492;28;20091;-94
2022/06/29 09:28:34;;;;;;;3.67;3.38;;;;;;;26.40;55.57;97892.75;5048718;28;20107;-87
2022/06/29 09:31:01;;;;;;;3.13;2.90;;;;;;;26.44;55.72;97887.53;5051551;28;20095;-87
2022/06/29 09:33:31;;;;;;;3.40;3.20;;;;;;;26.41;55.99;97894.31;5033854;28;20048;-85
2022/06/29 09:36:14;;;;;;;3.40;3.10;;;;;;;26.25;56.31;97903.03;5069603;28;20047;-91
2022/06/29 09:38:41;;;;;;;3.75;3.45;;;;;;;25.96;55.62;97895.41;5072677;28;20324;-88
2022/06/29 09:41:14;;;;;;;3.08;2.88;;;;;;;25.86;56.65;97886.50;5051356;28;20079;-85
2022/06/29 09:43:46;;;;;;;3.63;3.33;;;;;;;25.93;57.90;97893.34;5031419;28;20037;-88
2022/06/29 09:46:15;;;;;;;2.50;2.30;;;;;;;26.11;59.70;97890.47;5047154;28;20049;-84
2022/06/29 09:48:43;;;;;;;3.28;3.00;;;;;;;26.10;57.43;97893.47;5050991;28;20460;-89
2022/06/29 09:51:30;;;;;;;2.80;2.60;;;;;;;26.16;57.18;97892.25;5067878;28;20052;-93
2022/06/29 09:54:10;;;;;;;3.22;2.92;;;;;;;25.95;56.56;97885.75;5060555;28;20470;-85
2022/06/29 09:56:50;;;;;;;3.00;2.80;;;;;;;25.95;57.52;97891.13;5032066;28;20076;-89
2022/06/29 10:05:17;;;;;;;3.25;3.00;;;;;;;25.78;58.81;97881.03;5052429;28;20060;-85
2022/06/29 10:07:51;;;;;;;3.80;3.50;;;;;;;25.75;58.11;97893.19;5048808;28;20071;-88
2022/06/29 10:10:20;;;;;;;3.20;2.90;;;;;;;25.77;57.24;97874.88;5049372;28;20049;-94
2022/06/29 10:16:31;;;;;;;;;;;;;;;26.18;56.77;97878.50;5051141;28;20679;-84
2022/06/29 10:19:29;;;;;;;3.67;3.10;;;;;;;26.41;57.68;97888.94;5049442;28;19974;-86
2022/06/29 10:21:57;;;;;;;3.45;3.15;;;;;;;26.34;56.55;97874.31;5046651;28;20122;-88
2022/06/29 10:24:25;;;;;;;3.90;3.60;;;;;;;26.16;56.73;97878.81;5043160;28;20476;-91
2022/06/29 10:26:53;;;;;;;3.80;3.38;;;;;;;26.06;57.76;97881.72;5049610;28;20049;-86
2022/06/29 10:29:22;;;;;;;3.85;3.33;;;;;;;25.99;58.12;97881.38;5052469;28;20048;-86
2022/06/29 10:31:56;;;;;;;3.97;3.30;;;;;;;25.82;58.41;97882.00;5066245;28;20402;-89
2022/06/29 10:34:30;;;;;;;3.15;2.92;;;;;;;25.76;59.32;97883.22;5046866;28;20416;-90
2022/06/29 10:37:15;;;;;;;5.45;4.95;;;;;;;25.43;59.01;97872.66;5045802;28;20042;-91
2022/06/29 10:39:44;;;;;;;4.05;3.65;;;;;;;25.54;60.53;97878.56;5067107;28;20041;-87
2022/06/29 10:45:20;;;;;;;4.25;3.90;;;;;;;26.15;58.54;97874.53;5044857;28;20287;-87
2022/06/29 10:48:07;;;;;;;4.40;4.00;;;;;;;26.39;56.31;97868.81;5051735;28;20562;-90
2022/06/29 10:50:40;;;;;;;4.40;3.88;;;;;;;26.47;56.85;97875.38;5031402;28;20052;-90
2022/06/29 10:53:13;;;;;;;5.28;4.80;;;;;;;26.34;56.67;97868.94;5050328;28;20079;-92
2022/06/29 10:55:54;;;;;;;3.90;3.42;;;;;;;26.67;56.24;97874.84;5050975;28;20040;-88
2022/06/29 10:58:22;;;;;;;;;;;;;;;26.55;55.63;97867.34;5043757;28;20565;-86
2022/06/29 11:00:54;;;;;;;4.93;4.45;;;;;;;26.60;55.36;97858.34;5046449;28;19925;-89
2022/06/29 11:03:25;;;;;;;5.40;4.90;;;;;;;26.67;57.58;97866.75;5046827;28;20696;-86
2022/06/29 11:17:03;;;;;;;3.50;3.20;;;;;;;27.19;56.49;97837.38;5047998;28;20041;-89
2022/06/29 11:19:34;;;;;;;3.42;3.13;;;;;;;27.32;56.22;97863.34;5046596;28;20044;-87
2022/06/29 11:22:15;;;;;;;3.20;2.90;;;;;;;27.40;55.64;97849.09;5047989;28;20045;-87
2022/06/29 11:25:00;;;;;;;5.82;4.50;;;;;;;27.09;54.99;97843.03;5043334;28;20076;-87
2022/06/29 11:27:38;;;;;;;4.35;3.53;;;;;;;27.04;57.49;97851.22;5044615;28;20466;-86
2022/06/29 11:30:08;;;;;;;3.33;3.03;;;;;;;26.89;58.08;97833.63;5045862;28;20489;-87
2022/06/29 11:32:41;;;;;;;3.67;3.30;;;;;;;27.31;59.56;97844.81;5044484;28;20041;-85
2022/06/29 11:35:10;;;;;;;3.95;3.65;;;;;;;27.25;55.48;97849.56;5043506;28;20123;-85
2022/06/29 11:37:47;;;;;;;3.95;3.45;;;;;;;27.23;56.18;97843.72;5047934;28;20106;-86
2022/06/29 11:40:14;;;;;;;4.25;3.50;;;;;;;27.40;55.61;97830.25;5045689;28;20103;-86
2022/06/29 11:45:54;;;;;;;3.50;3.20;;;;;;;28.19;52.69;97825.66;5059262;28;20045;-89
2022/06/29 11:48:22;;;;;;;3.50;3.20;;;;;;;28.25;52.98;97825.16;5041319;28;20107;-89
2022/06/29 11:50:51;;;;;;;3.03;2.63;;;;;;;28.40;51.63;97826.56;5053893;28;20049;-90
2022/06/29 11:53:45;;;;;;;3.42;3.13;;;;;;;28.31;51.95;97822.25;5053637;28;20777;-86
2022/06/29 11:56:27;;;;;;;2.70;2.50;;;;;;;28.35;53.71;97824.03;5053988;28;20053;-91
2022/06/29 11:58:56;;;;;;;5.00;3.13;;;;;;;28.21;52.08;97826.09;5053410;28;20064;-94
2022/06/29 12:01:26;;;;;;;3.30;3.00;;;;;;;28.17;52.13;97812.47;5052780;28;20074;-91
2022/06/29 12:03:58;;;;;;;3.35;3.05;;;;;;;28.23;51.95;97821.19;5058763;28;20056;-88
2022/06/29 12:06:35;;;;;;;3.28;2.92;;;;;;;28.38;52.42;97804.53;5048235;28;20049;-89
2022/06/29 12:09:04;;;;;;;2.75;2.55;;;;;;;28.51;51.74;97800.81;5081439;28;20090;-91
2022/06/29 12:11:50;;;;;;;2.72;2.53;;;;;;;28.76;50.83;97806.41;5063410;28;20082;-92
2022/06/29 12:14:17;;;;;;;2.72;2.53;;;;;;;28.82;51.18;97810.50;5068371;28;20035;-88
2022/06/29 12:16:45;;;;;;;2.30;2.10;;;;;;;28.86;49.78;97808.75;5055054;28;20412;-88
2022/06/29 12:19:12;;;;;;;3.00;2.80;;;;;;;28.82;48.69;97805.09;5049104;28;20068;-91